sensor_id;sensor_type;location;lat;lon;timestamp;P1;durP1;ratioP1;P2;durP2;ratioP2
20241;SDS011;10279;46.388;8.116;2024-02-28T00:01:15;0.50;;;0.50;;
20241;SDS011;10279;46.388;8.116;2024-02-28T00:03:43;0.57;;;0.40;;
20241;SDS011;10279;46.388;8.116;2024-02-28T00:06:11;0.60;;;0.60;;
20241;SDS011;10279;46.388;8.116;2024-02-28T00:08:38;0.87;;;0.77;;
20241;SDS011;10279;46.388;8.116;2024-02-28T00:11:05;0.77;;;0.60;;
20241;SDS011;10279;46.388;8.116;2024-02-28T00:13:32;0.30;;;0.30;;
20241;SDS011;10279;46.388;8.116;2024-02-28T00:15:59;0.33;;;0.33;;
20241;SDS011;10279;46.388;8.116;2024-02-28T00:18:27;0.40;;;0.40;;
20241;SDS011;10279;46.388;8.116;2024-02-28T00:20:54;0.30;;;0.30;;
20241;SDS011;10279;46.388;8.116;2024-02-28T00:23:21;0.53;;;0.40;;
20241;SDS011;10279;46.388;8.116;2024-02-28T00:25:48;0.40;;;0.40;;
20241;SDS011;10279;46.388;8.116;2024-02-28T00:28:15;1.30;;;0.70;;
20241;SDS011;10279;46.388;8.116;2024-02-28T00:30:42;0.80;;;0.50;;
20241;SDS011;10279;46.388;8.116;2024-02-28T00:33:09;0.40;;;0.40;;
20241;SDS011;10279;46.388;8.116;2024-02-28T00:35:37;0.40;;;0.40;;
20241;SDS011;10279;46.388;8.116;2024-02-28T00:38:08;0.70;;;0.50;;
20241;SDS011;10279;46.388;8.116;2024-02-28T00:40:35;0.40;;;0.30;;
20241;SDS011;10279;46.388;8.116;2024-02-28T00:43:02;0.57;;;0.40;;
20241;SDS011;10279;46.388;8.116;2024-02-28T00:45:30;0.40;;;0.40;;
20241;SDS011;10279;46.388;8.116;2024-02-28T00:47:57;0.40;;;0.40;;
20241;SDS011;10279;46.388;8.116;2024-02-28T00:50:24;0.40;;;0.40;;
20241;SDS011;10279;46.388;8.116;2024-02-28T00:52:51;1.53;;;0.50;;
20241;SDS011;10279;46.388;8.116;2024-02-28T00:55:18;1.57;;;0.50;;
20241;SDS011;10279;46.388;8.116;2024-02-28T00:57:45;0.87;;;0.80;;
20241;SDS011;10279;46.388;8.116;2024-02-28T01:00:12;1.30;;;1.20;;
20241;SDS011;10279;46.388;8.116;2024-02-28T01:02:40;5.03;;;1.40;;
20241;SDS011;10279;46.388;8.116;2024-02-28T01:05:10;1.80;;;1.23;;
20241;SDS011;10279;46.388;8.116;2024-02-28T01:07:37;4.57;;;2.07;;
20241;SDS011;10279;46.388;8.116;2024-02-28T01:10:04;7.87;;;2.20;;
20241;SDS011;10279;46.388;8.116;2024-02-28T01:12:33;2.23;;;1.80;;
20241;SDS011;10279;46.388;8.116;2024-02-28T01:15:01;2.20;;;1.90;;
20241;SDS011;10279;46.388;8.116;2024-02-28T01:17:28;3.73;;;2.93;;
20241;SDS011;10279;46.388;8.116;2024-02-28T01:19:55;7.50;;;3.77;;
20241;SDS011;10279;46.388;8.116;2024-02-28T01:22:23;5.30;;;3.23;;
20241;SDS011;10279;46.388;8.116;2024-02-28T01:24:50;4.00;;;3.10;;
20241;SDS011;10279;46.388;8.116;2024-02-28T01:27:17;5.63;;;3.43;;
20241;SDS011;10279;46.388;8.116;2024-02-28T01:29:44;3.90;;;3.03;;
20241;SDS011;10279;46.388;8.116;2024-02-28T01:32:12;4.53;;;2.60;;
20241;SDS011;10279;46.388;8.116;2024-02-28T01:34:39;4.83;;;3.27;;
20241;SDS011;10279;46.388;8.116;2024-02-28T01:37:06;4.83;;;3.40;;
20241;SDS011;10279;46.388;8.116;2024-02-28T01:39:33;3.90;;;3.10;;
20241;SDS011;10279;46.388;8.116;2024-02-28T01:42:00;5.03;;;3.90;;
20241;SDS011;10279;46.388;8.116;2024-02-28T01:44:27;5.00;;;3.80;;
20241;SDS011;10279;46.388;8.116;2024-02-28T01:46:54;5.17;;;3.83;;
20241;SDS011;10279;46.388;8.116;2024-02-28T01:49:23;4.60;;;3.70;;
20241;SDS011;10279;46.388;8.116;2024-02-28T01:51:51;7.47;;;4.37;;
20241;SDS011;10279;46.388;8.116;2024-02-28T01:54:21;6.23;;;4.37;;
20241;SDS011;10279;46.388;8.116;2024-02-28T01:56:48;7.03;;;4.20;;
20241;SDS011;10279;46.388;8.116;2024-02-28T01:59:16;5.90;;;4.07;;
20241;SDS011;10279;46.388;8.116;2024-02-28T02:01:45;7.07;;;4.60;;
20241;SDS011;10279;46.388;8.116;2024-02-28T02:04:12;6.33;;;4.50;;
20241;SDS011;10279;46.388;8.116;2024-02-28T02:06:41;7.53;;;5.30;;
20241;SDS011;10279;46.388;8.116;2024-02-28T02:09:10;7.20;;;5.43;;
20241;SDS011;10279;46.388;8.116;2024-02-28T02:11:38;8.87;;;5.97;;
20241;SDS011;10279;46.388;8.116;2024-02-28T02:14:06;8.03;;;4.40;;
20241;SDS011;10279;46.388;8.116;2024-02-28T02:16:33;9.13;;;5.43;;
20241;SDS011;10279;46.388;8.116;2024-02-28T02:19:00;6.53;;;5.03;;
20241;SDS011;10279;46.388;8.116;2024-02-28T02:21:30;5.90;;;4.73;;
20241;SDS011;10279;46.388;8.116;2024-02-28T02:23:58;8.50;;;5.40;;
20241;SDS011;10279;46.388;8.116;2024-02-28T02:26:25;8.13;;;6.20;;
20241;SDS011;10279;46.388;8.116;2024-02-28T02:28:52;7.73;;;6.10;;
20241;SDS011;10279;46.388;8.116;2024-02-28T02:31:19;12.57;;;8.60;;
20241;SDS011;10279;46.388;8.116;2024-02-28T02:33:46;9.90;;;8.70;;
20241;SDS011;10279;46.388;8.116;2024-02-28T02:36:13;13.57;;;10.10;;
20241;SDS011;10279;46.388;8.116;2024-02-28T02:38:40;10.57;;;8.27;;
20241;SDS011;10279;46.388;8.116;2024-02-28T02:41:07;11.97;;;8.90;;
20241;SDS011;10279;46.388;8.116;2024-02-28T02:43:35;10.90;;;8.23;;
20241;SDS011;10279;46.388;8.116;2024-02-28T02:46:02;11.77;;;8.67;;
20241;SDS011;10279;46.388;8.116;2024-02-28T02:48:29;10.13;;;8.43;;
20241;SDS011;10279;46.388;8.116;2024-02-28T02:50:56;12.93;;;9.23;;
20241;SDS011;10279;46.388;8.116;2024-02-28T02:53:23;12.00;;;9.00;;
20241;SDS011;10279;46.388;8.116;2024-02-28T02:55:50;11.13;;;9.23;;
20241;SDS011;10279;46.388;8.116;2024-02-28T02:58:18;11.47;;;9.03;;
20241;SDS011;10279;46.388;8.116;2024-02-28T03:00:45;12.57;;;9.77;;
20241;SDS011;10279;46.388;8.116;2024-02-28T03:03:12;12.40;;;10.27;;
20241;SDS011;10279;46.388;8.116;2024-02-28T03:05:39;15.10;;;11.77;;
20241;SDS011;10279;46.388;8.116;2024-02-28T03:08:06;13.67;;;11.13;;
20241;SDS011;10279;46.388;8.116;2024-02-28T03:10:34;13.93;;;10.97;;
20241;SDS011;10279;46.388;8.116;2024-02-28T03:13:01;14.33;;;10.97;;
20241;SDS011;10279;46.388;8.116;2024-02-28T03:15:28;14.87;;;11.70;;
20241;SDS011;10279;46.388;8.116;2024-02-28T03:17:55;14.17;;;11.10;;
20241;SDS011;10279;46.388;8.116;2024-02-28T03:20:22;14.70;;;11.30;;
20241;SDS011;10279;46.388;8.116;2024-02-28T03:22:50;15.23;;;11.27;;
20241;SDS011;10279;46.388;8.116;2024-02-28T03:25:17;14.63;;;11.37;;
20241;SDS011;10279;46.388;8.116;2024-02-28T03:27:44;13.53;;;11.07;;
20241;SDS011;10279;46.388;8.116;2024-02-28T03:30:11;17.03;;;11.27;;
20241;SDS011;10279;46.388;8.116;2024-02-28T03:32:39;14.90;;;11.50;;
20241;SDS011;10279;46.388;8.116;2024-02-28T03:35:06;15.23;;;12.03;;
20241;SDS011;10279;46.388;8.116;2024-02-28T03:37:35;14.07;;;10.73;;
20241;SDS011;10279;46.388;8.116;2024-02-28T03:40:02;15.20;;;11.27;;
20241;SDS011;10279;46.388;8.116;2024-02-28T03:42:30;15.30;;;11.63;;
20241;SDS011;10279;46.388;8.116;2024-02-28T03:44:57;15.60;;;12.37;;
20241;SDS011;10279;46.388;8.116;2024-02-28T03:47:24;14.27;;;11.43;;
20241;SDS011;10279;46.388;8.116;2024-02-28T03:49:51;14.53;;;11.10;;
20241;SDS011;10279;46.388;8.116;2024-02-28T03:52:18;15.13;;;11.30;;
20241;SDS011;10279;46.388;8.116;2024-02-28T03:54:45;13.83;;;11.17;;
20241;SDS011;10279;46.388;8.116;2024-02-28T03:57:13;14.20;;;11.13;;
20241;SDS011;10279;46.388;8.116;2024-02-28T03:59:40;13.60;;;10.63;;
20241;SDS011;10279;46.388;8.116;2024-02-28T04:02:07;15.00;;;10.80;;
20241;SDS011;10279;46.388;8.116;2024-02-28T04:04:35;12.60;;;10.07;;
20241;SDS011;10279;46.388;8.116;2024-02-28T04:07:02;12.63;;;9.23;;
20241;SDS011;10279;46.388;8.116;2024-02-28T04:09:29;12.43;;;8.93;;
20241;SDS011;10279;46.388;8.116;2024-02-28T04:11:56;11.87;;;9.40;;
20241;SDS011;10279;46.388;8.116;2024-02-28T04:14:23;15.83;;;10.53;;
20241;SDS011;10279;46.388;8.116;2024-02-28T04:16:50;10.17;;;7.43;;
20241;SDS011;10279;46.388;8.116;2024-02-28T04:19:18;12.50;;;9.20;;
20241;SDS011;10279;46.388;8.116;2024-02-28T04:21:45;14.60;;;9.20;;
20241;SDS011;10279;46.388;8.116;2024-02-28T04:24:12;10.57;;;8.20;;
20241;SDS011;10279;46.388;8.116;2024-02-28T04:26:42;9.03;;;6.80;;
20241;SDS011;10279;46.388;8.116;2024-02-28T04:29:09;8.57;;;6.40;;
20241;SDS011;10279;46.388;8.116;2024-02-28T04:31:40;8.30;;;6.13;;
20241;SDS011;10279;46.388;8.116;2024-02-28T04:34:08;8.73;;;6.80;;
20241;SDS011;10279;46.388;8.116;2024-02-28T04:36:35;14.63;;;10.70;;
20241;SDS011;10279;46.388;8.116;2024-02-28T04:39:02;14.37;;;11.23;;
20241;SDS011;10279;46.388;8.116;2024-02-28T04:41:32;15.63;;;11.50;;
20241;SDS011;10279;46.388;8.116;2024-02-28T04:44:00;14.90;;;11.30;;
20241;SDS011;10279;46.388;8.116;2024-02-28T04:46:27;14.57;;;11.27;;
20241;SDS011;10279;46.388;8.116;2024-02-28T04:48:55;11.80;;;9.43;;
20241;SDS011;10279;46.388;8.116;2024-02-28T04:51:22;12.03;;;9.60;;
20241;SDS011;10279;46.388;8.116;2024-02-28T04:53:49;12.23;;;8.30;;
20241;SDS011;10279;46.388;8.116;2024-02-28T04:56:16;13.97;;;11.00;;
20241;SDS011;10279;46.388;8.116;2024-02-28T04:58:44;14.07;;;10.33;;
20241;SDS011;10279;46.388;8.116;2024-02-28T05:01:11;13.87;;;10.60;;
20241;SDS011;10279;46.388;8.116;2024-02-28T05:03:39;13.47;;;9.63;;
20241;SDS011;10279;46.388;8.116;2024-02-28T05:06:07;11.83;;;9.00;;
20241;SDS011;10279;46.388;8.116;2024-02-28T05:08:36;12.43;;;9.30;;
20241;SDS011;10279;46.388;8.116;2024-02-28T05:11:06;19.17;;;11.23;;
20241;SDS011;10279;46.388;8.116;2024-02-28T05:13:34;17.27;;;12.97;;
20241;SDS011;10279;46.388;8.116;2024-02-28T05:16:01;16.30;;;12.13;;
20241;SDS011;10279;46.388;8.116;2024-02-28T05:18:29;16.73;;;12.57;;
20241;SDS011;10279;46.388;8.116;2024-02-28T05:20:56;17.27;;;12.93;;
20241;SDS011;10279;46.388;8.116;2024-02-28T05:23:23;22.80;;;15.50;;
20241;SDS011;10279;46.388;8.116;2024-02-28T05:25:51;18.80;;;13.87;;
20241;SDS011;10279;46.388;8.116;2024-02-28T05:28:18;19.53;;;14.60;;
20241;SDS011;10279;46.388;8.116;2024-02-28T05:30:45;20.63;;;14.67;;
20241;SDS011;10279;46.388;8.116;2024-02-28T05:33:16;22.50;;;14.97;;
20241;SDS011;10279;46.388;8.116;2024-02-28T05:35:44;19.80;;;13.00;;
20241;SDS011;10279;46.388;8.116;2024-02-28T05:38:11;20.10;;;13.60;;
20241;SDS011;10279;46.388;8.116;2024-02-28T05:40:38;20.17;;;12.90;;
20241;SDS011;10279;46.388;8.116;2024-02-28T05:43:08;16.60;;;11.47;;
20241;SDS011;10279;46.388;8.116;2024-02-28T05:45:35;12.43;;;9.60;;
20241;SDS011;10279;46.388;8.116;2024-02-28T05:48:02;13.07;;;8.63;;
20241;SDS011;10279;46.388;8.116;2024-02-28T05:50:30;13.60;;;9.80;;
20241;SDS011;10279;46.388;8.116;2024-02-28T05:52:59;14.23;;;10.17;;
20241;SDS011;10279;46.388;8.116;2024-02-28T05:55:26;12.03;;;8.90;;
20241;SDS011;10279;46.388;8.116;2024-02-28T05:57:54;11.40;;;8.23;;
20241;SDS011;10279;46.388;8.116;2024-02-28T06:00:21;10.17;;;8.10;;
20241;SDS011;10279;46.388;8.116;2024-02-28T06:02:49;10.30;;;8.03;;
20241;SDS011;10279;46.388;8.116;2024-02-28T06:05:16;12.20;;;8.87;;
20241;SDS011;10279;46.388;8.116;2024-02-28T06:07:43;11.57;;;8.97;;
20241;SDS011;10279;46.388;8.116;2024-02-28T06:10:10;13.90;;;9.87;;
20241;SDS011;10279;46.388;8.116;2024-02-28T06:12:37;12.27;;;9.13;;
20241;SDS011;10279;46.388;8.116;2024-02-28T06:15:05;12.67;;;8.87;;
20241;SDS011;10279;46.388;8.116;2024-02-28T06:17:32;10.33;;;7.47;;
20241;SDS011;10279;46.388;8.116;2024-02-28T06:19:59;13.40;;;8.83;;
20241;SDS011;10279;46.388;8.116;2024-02-28T06:22:26;13.33;;;9.67;;
20241;SDS011;10279;46.388;8.116;2024-02-28T06:24:54;13.70;;;8.83;;
20241;SDS011;10279;46.388;8.116;2024-02-28T06:27:21;13.00;;;9.20;;
20241;SDS011;10279;46.388;8.116;2024-02-28T06:29:48;14.03;;;9.93;;
20241;SDS011;10279;46.388;8.116;2024-02-28T06:32:15;12.90;;;9.63;;
20241;SDS011;10279;46.388;8.116;2024-02-28T06:34:42;12.03;;;8.70;;
20241;SDS011;10279;46.388;8.116;2024-02-28T06:37:10;14.53;;;9.30;;
20241;SDS011;10279;46.388;8.116;2024-02-28T06:39:37;13.03;;;9.10;;
20241;SDS011;10279;46.388;8.116;2024-02-28T06:42:05;11.10;;;8.50;;
20241;SDS011;10279;46.388;8.116;2024-02-28T06:44:32;9.63;;;6.97;;
20241;SDS011;10279;46.388;8.116;2024-02-28T06:46:59;7.40;;;5.03;;
20241;SDS011;10279;46.388;8.116;2024-02-28T06:49:26;5.10;;;4.37;;
20241;SDS011;10279;46.388;8.116;2024-02-28T06:51:53;5.70;;;4.57;;
20241;SDS011;10279;46.388;8.116;2024-02-28T06:54:21;5.60;;;4.40;;
20241;SDS011;10279;46.388;8.116;2024-02-28T06:56:48;4.53;;;3.57;;
20241;SDS011;10279;46.388;8.116;2024-02-28T06:59:15;4.43;;;4.00;;
20241;SDS011;10279;46.388;8.116;2024-02-28T07:01:42;3.93;;;3.50;;
20241;SDS011;10279;46.388;8.116;2024-02-28T07:04:09;7.00;;;3.53;;
20241;SDS011;10279;46.388;8.116;2024-02-28T07:06:36;6.20;;;4.00;;
20241;SDS011;10279;46.388;8.116;2024-02-28T07:09:04;4.50;;;3.80;;
20241;SDS011;10279;46.388;8.116;2024-02-28T07:11:31;4.43;;;3.63;;
20241;SDS011;10279;46.388;8.116;2024-02-28T07:13:58;4.10;;;3.43;;
20241;SDS011;10279;46.388;8.116;2024-02-28T07:16:31;3.47;;;3.13;;
20241;SDS011;10279;46.388;8.116;2024-02-28T07:19:00;3.93;;;3.30;;
20241;SDS011;10279;46.388;8.116;2024-02-28T07:21:28;4.57;;;3.47;;
20241;SDS011;10279;46.388;8.116;2024-02-28T07:23:56;6.40;;;4.70;;
20241;SDS011;10279;46.388;8.116;2024-02-28T07:26:23;6.53;;;5.20;;
20241;SDS011;10279;46.388;8.116;2024-02-28T07:28:53;9.73;;;6.63;;
20241;SDS011;10279;46.388;8.116;2024-02-28T07:31:20;9.23;;;6.73;;
20241;SDS011;10279;46.388;8.116;2024-02-28T07:33:48;9.37;;;6.47;;
20241;SDS011;10279;46.388;8.116;2024-02-28T07:36:16;8.13;;;5.83;;
20241;SDS011;10279;46.388;8.116;2024-02-28T07:38:43;9.87;;;6.97;;
20241;SDS011;10279;46.388;8.116;2024-02-28T07:41:10;12.53;;;9.13;;
20241;SDS011;10279;46.388;8.116;2024-02-28T07:43:41;21.20;;;8.70;;
20241;SDS011;10279;46.388;8.116;2024-02-28T07:46:10;12.83;;;8.17;;
20241;SDS011;10279;46.388;8.116;2024-02-28T07:48:37;13.23;;;9.17;;
20241;SDS011;10279;46.388;8.116;2024-02-28T07:51:06;14.53;;;9.60;;
20241;SDS011;10279;46.388;8.116;2024-02-28T07:53:33;16.70;;;10.23;;
20241;SDS011;10279;46.388;8.116;2024-02-28T07:56:01;17.40;;;11.53;;
20241;SDS011;10279;46.388;8.116;2024-02-28T07:58:29;17.67;;;11.07;;
20241;SDS011;10279;46.388;8.116;2024-02-28T08:00:56;14.40;;;10.00;;
20241;SDS011;10279;46.388;8.116;2024-02-28T08:03:23;17.90;;;10.90;;
20241;SDS011;10279;46.388;8.116;2024-02-28T08:05:51;17.50;;;11.63;;
20241;SDS011;10279;46.388;8.116;2024-02-28T08:08:18;15.87;;;10.43;;
20241;SDS011;10279;46.388;8.116;2024-02-28T08:10:45;17.10;;;10.47;;
20241;SDS011;10279;46.388;8.116;2024-02-28T08:13:14;14.53;;;10.10;;
20241;SDS011;10279;46.388;8.116;2024-02-28T08:15:41;16.13;;;11.17;;
20241;SDS011;10279;46.388;8.116;2024-02-28T08:18:08;16.07;;;11.27;;
20241;SDS011;10279;46.388;8.116;2024-02-28T08:20:38;15.93;;;10.57;;
20241;SDS011;10279;46.388;8.116;2024-02-28T08:23:05;12.30;;;8.37;;
20241;SDS011;10279;46.388;8.116;2024-02-28T08:25:32;11.63;;;8.13;;
20241;SDS011;10279;46.388;8.116;2024-02-28T08:27:59;17.00;;;10.33;;
20241;SDS011;10279;46.388;8.116;2024-02-28T08:30:27;13.23;;;9.53;;
20241;SDS011;10279;46.388;8.116;2024-02-28T08:32:54;16.73;;;11.00;;
20241;SDS011;10279;46.388;8.116;2024-02-28T08:35:21;16.93;;;11.13;;
20241;SDS011;10279;46.388;8.116;2024-02-28T08:37:50;19.20;;;11.83;;
20241;SDS011;10279;46.388;8.116;2024-02-28T08:40:17;15.70;;;10.77;;
20241;SDS011;10279;46.388;8.116;2024-02-28T08:42:44;19.90;;;12.77;;
20241;SDS011;10279;46.388;8.116;2024-02-28T08:45:13;21.47;;;13.87;;
20241;SDS011;10279;46.388;8.116;2024-02-28T08:47:40;18.20;;;11.50;;
20241;SDS011;10279;46.388;8.116;2024-02-28T08:50:08;19.30;;;11.90;;
20241;SDS011;10279;46.388;8.116;2024-02-28T08:52:35;18.83;;;12.10;;
20241;SDS011;10279;46.388;8.116;2024-02-28T08:55:03;19.70;;;12.20;;
20241;SDS011;10279;46.388;8.116;2024-02-28T08:57:31;16.70;;;11.43;;
20241;SDS011;10279;46.388;8.116;2024-02-28T08:59:58;16.47;;;11.53;;
20241;SDS011;10279;46.388;8.116;2024-02-28T09:02:25;15.60;;;10.50;;
20241;SDS011;10279;46.388;8.116;2024-02-28T09:04:53;14.40;;;9.37;;
20241;SDS011;10279;46.388;8.116;2024-02-28T09:07:23;13.43;;;8.67;;
20241;SDS011;10279;46.388;8.116;2024-02-28T09:09:50;12.60;;;9.07;;
20241;SDS011;10279;46.388;8.116;2024-02-28T09:12:18;11.97;;;8.37;;
20241;SDS011;10279;46.388;8.116;2024-02-28T09:14:45;10.20;;;7.23;;
20241;SDS011;10279;46.388;8.116;2024-02-28T09:17:12;12.50;;;8.43;;
20241;SDS011;10279;46.388;8.116;2024-02-28T09:19:39;11.40;;;7.90;;
20241;SDS011;10279;46.388;8.116;2024-02-28T09:22:06;12.73;;;9.20;;
20241;SDS011;10279;46.388;8.116;2024-02-28T09:24:33;11.20;;;8.20;;
20241;SDS011;10279;46.388;8.116;2024-02-28T09:27:03;12.00;;;7.83;;
20241;SDS011;10279;46.388;8.116;2024-02-28T09:29:32;10.63;;;8.00;;
20241;SDS011;10279;46.388;8.116;2024-02-28T09:31:59;11.50;;;8.27;;
20241;SDS011;10279;46.388;8.116;2024-02-28T09:34:26;9.33;;;7.17;;
20241;SDS011;10279;46.388;8.116;2024-02-28T09:36:53;10.57;;;7.80;;
20241;SDS011;10279;46.388;8.116;2024-02-28T09:39:21;9.63;;;7.37;;
20241;SDS011;10279;46.388;8.116;2024-02-28T09:41:48;12.17;;;8.60;;
20241;SDS011;10279;46.388;8.116;2024-02-28T09:44:16;13.07;;;8.83;;
20241;SDS011;10279;46.388;8.116;2024-02-28T09:46:44;13.50;;;9.03;;
20241;SDS011;10279;46.388;8.116;2024-02-28T09:49:12;11.70;;;8.27;;
20241;SDS011;10279;46.388;8.116;2024-02-28T09:51:42;10.63;;;8.20;;
20241;SDS011;10279;46.388;8.116;2024-02-28T09:54:10;11.03;;;7.83;;
20241;SDS011;10279;46.388;8.116;2024-02-28T09:56:37;8.43;;;6.23;;
20241;SDS011;10279;46.388;8.116;2024-02-28T09:59:05;9.63;;;7.13;;
20241;SDS011;10279;46.388;8.116;2024-02-28T10:01:33;11.57;;;7.37;;
20241;SDS011;10279;46.388;8.116;2024-02-28T10:04:10;8.70;;;6.33;;
20241;SDS011;10279;46.388;8.116;2024-02-28T10:06:40;9.50;;;6.50;;
20241;SDS011;10279;46.388;8.116;2024-02-28T10:09:08;7.63;;;5.97;;
20241;SDS011;10279;46.388;8.116;2024-02-28T10:11:37;8.37;;;6.60;;
20241;SDS011;10279;46.388;8.116;2024-02-28T10:14:04;8.80;;;6.57;;
20241;SDS011;10279;46.388;8.116;2024-02-28T10:16:32;10.30;;;6.30;;
20241;SDS011;10279;46.388;8.116;2024-02-28T10:18:59;8.63;;;6.23;;
20241;SDS011;10279;46.388;8.116;2024-02-28T10:21:26;7.93;;;5.67;;
20241;SDS011;10279;46.388;8.116;2024-02-28T10:23:53;7.73;;;5.73;;
20241;SDS011;10279;46.388;8.116;2024-02-28T10:26:28;9.73;;;6.87;;
20241;SDS011;10279;46.388;8.116;2024-02-28T10:28:58;7.70;;;6.03;;
20241;SDS011;10279;46.388;8.116;2024-02-28T10:31:25;9.73;;;7.43;;
20241;SDS011;10279;46.388;8.116;2024-02-28T10:33:52;9.13;;;6.30;;
20241;SDS011;10279;46.388;8.116;2024-02-28T10:36:19;8.73;;;6.47;;
20241;SDS011;10279;46.388;8.116;2024-02-28T10:38:47;8.07;;;5.77;;
20241;SDS011;10279;46.388;8.116;2024-02-28T10:41:14;8.30;;;6.13;;
20241;SDS011;10279;46.388;8.116;2024-02-28T10:43:42;7.50;;;5.57;;
20241;SDS011;10279;46.388;8.116;2024-02-28T10:46:12;9.37;;;6.27;;
20241;SDS011;10279;46.388;8.116;2024-02-28T10:49:01;8.93;;;6.23;;
20241;SDS011;10279;46.388;8.116;2024-02-28T10:51:29;7.33;;;5.67;;
20241;SDS011;10279;46.388;8.116;2024-02-28T10:56:40;6.70;;;4.90;;
20241;SDS011;10279;46.388;8.116;2024-02-28T10:59:09;6.40;;;4.97;;
20241;SDS011;10279;46.388;8.116;2024-02-28T11:01:42;7.60;;;5.77;;
20241;SDS011;10279;46.388;8.116;2024-02-28T11:04:12;7.60;;;5.37;;
20241;SDS011;10279;46.388;8.116;2024-02-28T11:06:51;7.00;;;5.50;;
20241;SDS011;10279;46.388;8.116;2024-02-28T11:09:24;6.40;;;4.90;;
20241;SDS011;10279;46.388;8.116;2024-02-28T11:11:54;5.73;;;4.53;;
20241;SDS011;10279;46.388;8.116;2024-02-28T11:14:23;6.80;;;4.97;;
20241;SDS011;10279;46.388;8.116;2024-02-28T11:17:00;6.77;;;5.27;;
20241;SDS011;10279;46.388;8.116;2024-02-28T11:19:29;6.83;;;5.37;;
20241;SDS011;10279;46.388;8.116;2024-02-28T11:21:58;6.67;;;5.30;;
20241;SDS011;10279;46.388;8.116;2024-02-28T11:24:30;7.57;;;5.27;;
20241;SDS011;10279;46.388;8.116;2024-02-28T11:26:59;6.97;;;5.30;;
20241;SDS011;10279;46.388;8.116;2024-02-28T11:29:28;8.03;;;5.90;;
20241;SDS011;10279;46.388;8.116;2024-02-28T11:31:56;8.10;;;5.60;;
20241;SDS011;10279;46.388;8.116;2024-02-28T11:34:23;7.33;;;5.40;;
20241;SDS011;10279;46.388;8.116;2024-02-28T11:36:51;6.87;;;5.40;;
20241;SDS011;10279;46.388;8.116;2024-02-28T11:39:20;6.70;;;5.23;;
20241;SDS011;10279;46.388;8.116;2024-02-28T11:41:52;8.43;;;5.67;;
20241;SDS011;10279;46.388;8.116;2024-02-28T11:44:20;7.23;;;5.10;;
20241;SDS011;10279;46.388;8.116;2024-02-28T11:46:47;7.00;;;4.90;;
20241;SDS011;10279;46.388;8.116;2024-02-28T11:49:15;5.73;;;4.40;;
20241;SDS011;10279;46.388;8.116;2024-02-28T11:51:43;5.77;;;4.77;;
20241;SDS011;10279;46.388;8.116;2024-02-28T11:54:11;6.50;;;5.10;;
20241;SDS011;10279;46.388;8.116;2024-02-28T11:56:39;6.37;;;4.90;;
20241;SDS011;10279;46.388;8.116;2024-02-28T11:59:08;5.33;;;4.40;;
20241;SDS011;10279;46.388;8.116;2024-02-28T12:01:38;5.10;;;4.27;;
20241;SDS011;10279;46.388;8.116;2024-02-28T12:04:07;5.00;;;3.80;;
20241;SDS011;10279;46.388;8.116;2024-02-28T12:06:35;6.17;;;4.60;;
20241;SDS011;10279;46.388;8.116;2024-02-28T12:09:07;5.23;;;4.33;;
20241;SDS011;10279;46.388;8.116;2024-02-28T12:11:36;5.73;;;4.43;;
20241;SDS011;10279;46.388;8.116;2024-02-28T12:14:05;4.30;;;3.90;;
20241;SDS011;10279;46.388;8.116;2024-02-28T12:16:36;5.43;;;4.00;;
20241;SDS011;10279;46.388;8.116;2024-02-28T12:19:07;5.43;;;4.53;;
20241;SDS011;10279;46.388;8.116;2024-02-28T12:21:38;5.40;;;4.20;;
20241;SDS011;10279;46.388;8.116;2024-02-28T12:24:10;5.63;;;4.30;;
20241;SDS011;10279;46.388;8.116;2024-02-28T12:26:38;3.50;;;2.93;;
20241;SDS011;10279;46.388;8.116;2024-02-28T12:29:05;5.97;;;3.13;;
20241;SDS011;10279;46.388;8.116;2024-02-28T12:31:33;4.93;;;3.10;;
20241;SDS011;10279;46.388;8.116;2024-02-28T12:34:00;2.80;;;2.50;;
20241;SDS011;10279;46.388;8.116;2024-02-28T12:36:30;2.67;;;2.40;;
20241;SDS011;10279;46.388;8.116;2024-02-28T12:38:59;3.03;;;2.57;;
20241;SDS011;10279;46.388;8.116;2024-02-28T12:41:26;2.60;;;2.40;;
20241;SDS011;10279;46.388;8.116;2024-02-28T12:43:54;3.23;;;2.83;;
20241;SDS011;10279;46.388;8.116;2024-02-28T12:46:21;3.47;;;2.40;;
20241;SDS011;10279;46.388;8.116;2024-02-28T12:48:48;3.67;;;2.33;;
20241;SDS011;10279;46.388;8.116;2024-02-28T12:54:12;2.50;;;2.30;;
20241;SDS011;10279;46.388;8.116;2024-02-28T12:56:42;3.77;;;2.17;;
20241;SDS011;10279;46.388;8.116;2024-02-28T12:59:10;3.87;;;2.77;;
20241;SDS011;10279;46.388;8.116;2024-02-28T13:01:37;2.87;;;2.53;;
20241;SDS011;10279;46.388;8.116;2024-02-28T13:04:05;3.17;;;2.83;;
20241;SDS011;10279;46.388;8.116;2024-02-28T13:06:32;2.40;;;2.20;;
20241;SDS011;10279;46.388;8.116;2024-02-28T13:08:59;4.97;;;2.67;;
20241;SDS011;10279;46.388;8.116;2024-02-28T13:11:27;3.13;;;2.83;;
20241;SDS011;10279;46.388;8.116;2024-02-28T13:13:54;2.83;;;2.33;;
20241;SDS011;10279;46.388;8.116;2024-02-28T13:16:21;2.63;;;2.43;;
20241;SDS011;10279;46.388;8.116;2024-02-28T13:18:49;3.77;;;2.70;;
20241;SDS011;10279;46.388;8.116;2024-02-28T13:21:16;3.90;;;2.40;;
20241;SDS011;10279;46.388;8.116;2024-02-28T13:23:43;2.73;;;2.10;;
20241;SDS011;10279;46.388;8.116;2024-02-28T13:26:10;3.03;;;2.30;;
20241;SDS011;10279;46.388;8.116;2024-02-28T13:28:44;2.77;;;1.90;;
20241;SDS011;10279;46.388;8.116;2024-02-28T13:31:16;2.87;;;1.93;;
20241;SDS011;10279;46.388;8.116;2024-02-28T13:33:43;1.90;;;1.60;;
20241;SDS011;10279;46.388;8.116;2024-02-28T13:36:10;1.40;;;1.30;;
20241;SDS011;10279;46.388;8.116;2024-02-28T13:38:38;1.80;;;1.30;;
20241;SDS011;10279;46.388;8.116;2024-02-28T13:41:05;3.70;;;1.37;;
20241;SDS011;10279;46.388;8.116;2024-02-28T13:43:32;2.20;;;1.50;;
20241;SDS011;10279;46.388;8.116;2024-02-28T13:46:00;2.10;;;1.73;;
20241;SDS011;10279;46.388;8.116;2024-02-28T13:48:27;2.30;;;1.30;;
20241;SDS011;10279;46.388;8.116;2024-02-28T13:50:55;2.20;;;1.80;;
20241;SDS011;10279;46.388;8.116;2024-02-28T13:53:22;3.23;;;1.23;;
20241;SDS011;10279;46.388;8.116;2024-02-28T13:55:51;1.23;;;1.13;;
20241;SDS011;10279;46.388;8.116;2024-02-28T13:58:21;1.37;;;1.17;;
20241;SDS011;10279;46.388;8.116;2024-02-28T14:00:48;2.30;;;1.20;;
20241;SDS011;10279;46.388;8.116;2024-02-28T14:03:15;1.63;;;1.53;;
20241;SDS011;10279;46.388;8.116;2024-02-28T14:05:43;1.20;;;1.10;;
20241;SDS011;10279;46.388;8.116;2024-02-28T14:08:10;0.80;;;0.60;;
20241;SDS011;10279;46.388;8.116;2024-02-28T14:10:39;1.33;;;0.83;;
20241;SDS011;10279;46.388;8.116;2024-02-28T14:13:06;0.80;;;0.43;;
20241;SDS011;10279;46.388;8.116;2024-02-28T14:15:34;1.00;;;0.37;;
20241;SDS011;10279;46.388;8.116;2024-02-28T14:18:03;1.03;;;0.40;;
20241;SDS011;10279;46.388;8.116;2024-02-28T14:20:31;0.50;;;0.50;;
20241;SDS011;10279;46.388;8.116;2024-02-28T14:22:58;0.70;;;0.50;;
20241;SDS011;10279;46.388;8.116;2024-02-28T14:25:25;0.67;;;0.60;;
20241;SDS011;10279;46.388;8.116;2024-02-28T14:27:53;1.77;;;0.40;;
20241;SDS011;10279;46.388;8.116;2024-02-28T14:30:20;1.47;;;1.07;;
20241;SDS011;10279;46.388;8.116;2024-02-28T14:32:48;4.80;;;2.10;;
20241;SDS011;10279;46.388;8.116;2024-02-28T14:35:16;4.13;;;2.87;;
20241;SDS011;10279;46.388;8.116;2024-02-28T14:37:43;5.40;;;4.40;;
20241;SDS011;10279;46.388;8.116;2024-02-28T14:40:10;6.60;;;4.57;;
20241;SDS011;10279;46.388;8.116;2024-02-28T14:42:38;8.60;;;6.60;;
20241;SDS011;10279;46.388;8.116;2024-02-28T14:45:10;13.87;;;7.80;;
20241;SDS011;10279;46.388;8.116;2024-02-28T14:47:38;11.50;;;8.20;;